Al Hamla — V7MX9 — position and weather

sailwx.info

Track history (hours):
 
Tides and Currents Weather Stations Pressure Air Temp Water Temp Dewpoint Dewpoint Depression Visibility Wind Speed Wind Dir Waves Ship Positions

Al Hamla

Last reported at 2015-Sep-01 22:25 UTC. Time now 2015-Sep-02 04:28 UTC.
Position N 34°09' E 023°19'.

Length 333 m; draft 12.2 m.

Type: Tanker. MMSI: 538002922.

Date/timePositionNaut miles runAvg speedWind from/ knotsBaromVisibWave heightAir tempDewpointWater temp
2015-Sep-01 22:25N 34°09' E 023°19'17816.0
2015-Sep-01 11:17N 33°15' E 026°43'7715.3
2015-Sep-01 06:12N 32°51' E 028°11'1015.2
2015-Sep-01 05:33N 32°48' E 028°22'3215.4
2015-Sep-01 03:28N 32°39' E 028°59'1516.0
2015-Sep-01 02:33N 32°35' E 029°15'1815.8
2015-Sep-01 01:26N 32°29' E 029°35'1916.1
2015-Sep-01 00:16N 32°23' E 029°56'1116.2
2015-Aug-31 23:33N 32°19' E 030°09'1616.1
2015-Aug-31 22:33N 32°15' E 030°27'2016.0
2015-Aug-31 21:19N 32°08' E 030°49'2815.6
2015-Aug-31 19:30N 31°60' E 031°22'1515.5
2015-Aug-31 18:32N 31°56' E 031°38'1515.2
2015-Aug-31 17:33N 31°50' E 031°54'1515.4
2015-Aug-31 16:33N 31°38' E 032°07'1615.2
2015-Aug-31 15:32N 31°29' E 032°21'20 9.6
2015-Aug-31 13:28N 31°09' E 032°19'1010.3
2015-Aug-31 12:33N 30°60' E 032°19'1310.0
2015-Aug-31 11:17N 30°47' E 032°19'  
Track history (hours):
 
Tides and Currents Weather Stations Pressure Air Temp Water Temp Dewpoint Dewpoint Depression Visibility Wind Speed Wind Dir Waves Ship Positions

Al Hamla

Last reported at 2015-Sep-01 22:25 UTC. Time now 2015-Sep-02 04:28 UTC.
Position N 34°09' E 023°19'.

Length 333 m; draft 12.2 m.

Type: Tanker. MMSI: 538002922.

Date/timePositionNaut miles runAvg speedWind from/ knotsBaromVisibWave heightAir tempDewpointWater temp
2015-Sep-01 22:25N 34°09' E 023°19'17816.0
2015-Sep-01 11:17N 33°15' E 026°43'7715.3
2015-Sep-01 06:12N 32°51' E 028°11'1015.2
2015-Sep-01 05:33N 32°48' E 028°22'3215.4
2015-Sep-01 03:28N 32°39' E 028°59'1516.0
2015-Sep-01 02:33N 32°35' E 029°15'1815.8
2015-Sep-01 01:26N 32°29' E 029°35'1916.1
2015-Sep-01 00:16N 32°23' E 029°56'1116.2
2015-Aug-31 23:33N 32°19' E 030°09'1616.1
2015-Aug-31 22:33N 32°15' E 030°27'2016.0
2015-Aug-31 21:19N 32°08' E 030°49'2815.6
2015-Aug-31 19:30N 31°60' E 031°22'1515.5
2015-Aug-31 18:32N 31°56' E 031°38'1515.2
2015-Aug-31 17:33N 31°50' E 031°54'1515.4
2015-Aug-31 16:33N 31°38' E 032°07'1615.2
2015-Aug-31 15:32N 31°29' E 032°21'20 9.6
2015-Aug-31 13:28N 31°09' E 032°19'1010.3
2015-Aug-31 12:33N 30°60' E 032°19'1310.0
2015-Aug-31 11:17N 30°47' E 032°19'  

Dump ship's entire track history